Terminal Aerodrome Forecast
Issued by NWS St Louis, MO

Home | Current Version | Previous Version | Text Only | Print | Product List | Glossary On
Versions: 1 2 3 4 5 6 7 8 9 10 11 12 13
000
FTUS43 KLSX 210520
TAFCOU
TAF
KCOU 210520Z 2106/2206 17010G17KT P6SM BKN250 WS015/19045KT
     FM211500 18013G23KT P6SM SCT110
     FM211800 18015G25KT P6SM BKN060
     FM220000 17011G20KT 5SM -SHRA VCTS BKN045CB=

USA.gov is the U.S. government's official web portal to all federal, state and local government web resources and services.